sensor_id;sensor_type;location;lat;lon;timestamp;P1;durP1;ratioP1;P2;durP2;ratioP2
77948;SDS011;67146;51.236;-0.336;2023-07-31T00:01:51;4.87;;;0.90;;
77948;SDS011;67146;51.236;-0.336;2023-07-31T00:04:16;7.70;;;0.97;;
77948;SDS011;67146;51.236;-0.336;2023-07-31T00:06:41;7.33;;;1.10;;
77948;SDS011;67146;51.236;-0.336;2023-07-31T00:09:07;6.90;;;1.48;;
77948;SDS011;67146;51.236;-0.336;2023-07-31T00:11:32;5.80;;;1.03;;
77948;SDS011;67146;51.236;-0.336;2023-07-31T00:13:57;3.87;;;0.50;;
77948;SDS011;67146;51.236;-0.336;2023-07-31T00:16:23;4.65;;;0.80;;
77948;SDS011;67146;51.236;-0.336;2023-07-31T00:18:48;6.22;;;0.82;;
77948;SDS011;67146;51.236;-0.336;2023-07-31T00:21:14;4.95;;;0.68;;
77948;SDS011;67146;51.236;-0.336;2023-07-31T00:23:39;5.22;;;0.68;;
77948;SDS011;67146;51.236;-0.336;2023-07-31T00:26:05;3.63;;;0.88;;
77948;SDS011;67146;51.236;-0.336;2023-07-31T00:28:30;2.87;;;0.60;;
77948;SDS011;67146;51.236;-0.336;2023-07-31T00:30:55;5.60;;;0.90;;
77948;SDS011;67146;51.236;-0.336;2023-07-31T00:33:21;4.30;;;0.25;;
77948;SDS011;67146;51.236;-0.336;2023-07-31T00:35:46;4.10;;;0.47;;
77948;SDS011;67146;51.236;-0.336;2023-07-31T00:38:12;5.22;;;0.80;;
77948;SDS011;67146;51.236;-0.336;2023-07-31T00:40:37;2.33;;;0.40;;
77948;SDS011;67146;51.236;-0.336;2023-07-31T00:43:03;4.03;;;0.60;;
77948;SDS011;67146;51.236;-0.336;2023-07-31T00:45:28;4.68;;;0.75;;
77948;SDS011;67146;51.236;-0.336;2023-07-31T00:47:54;3.72;;;0.40;;
77948;SDS011;67146;51.236;-0.336;2023-07-31T00:50:19;3.38;;;0.60;;
77948;SDS011;67146;51.236;-0.336;2023-07-31T00:52:45;3.47;;;0.57;;
77948;SDS011;67146;51.236;-0.336;2023-07-31T00:55:10;5.00;;;0.40;;
77948;SDS011;67146;51.236;-0.336;2023-07-31T00:57:36;2.60;;;0.60;;
77948;SDS011;67146;51.236;-0.336;2023-07-31T01:00:02;2.35;;;0.20;;
77948;SDS011;67146;51.236;-0.336;2023-07-31T01:02:28;3.72;;;0.50;;
77948;SDS011;67146;51.236;-0.336;2023-07-31T01:04:53;4.85;;;0.30;;
77948;SDS011;67146;51.236;-0.336;2023-07-31T01:07:25;3.38;;;0.43;;
77948;SDS011;67146;51.236;-0.336;2023-07-31T01:10:04;4.00;;;0.70;;
77948;SDS011;67146;51.236;-0.336;2023-07-31T01:12:33;2.17;;;0.32;;
77948;SDS011;67146;51.236;-0.336;2023-07-31T01:15:03;4.53;;;0.60;;
77948;SDS011;67146;51.236;-0.336;2023-07-31T01:17:29;4.65;;;0.50;;
77948;SDS011;67146;51.236;-0.336;2023-07-31T01:19:55;2.80;;;0.35;;
77948;SDS011;67146;51.236;-0.336;2023-07-31T01:22:39;5.00;;;0.52;;
77948;SDS011;67146;51.236;-0.336;2023-07-31T01:28:19;3.53;;;0.50;;
77948;SDS011;67146;51.236;-0.336;2023-07-31T01:30:47;3.72;;;0.77;;
77948;SDS011;67146;51.236;-0.336;2023-07-31T01:33:14;2.97;;;0.40;;
77948;SDS011;67146;51.236;-0.336;2023-07-31T01:35:43;3.85;;;0.55;;
77948;SDS011;67146;51.236;-0.336;2023-07-31T01:38:12;3.67;;;0.30;;
77948;SDS011;67146;51.236;-0.336;2023-07-31T01:40:40;4.85;;;0.55;;
77948;SDS011;67146;51.236;-0.336;2023-07-31T01:43:06;3.92;;;0.77;;
77948;SDS011;67146;51.236;-0.336;2023-07-31T01:45:31;5.37;;;0.80;;
77948;SDS011;67146;51.236;-0.336;2023-07-31T01:47:57;3.60;;;0.70;;
77948;SDS011;67146;51.236;-0.336;2023-07-31T01:50:22;4.13;;;0.53;;
77948;SDS011;67146;51.236;-0.336;2023-07-31T01:52:47;6.20;;;0.90;;
77948;SDS011;67146;51.236;-0.336;2023-07-31T01:55:13;3.70;;;0.63;;
77948;SDS011;67146;51.236;-0.336;2023-07-31T01:57:38;4.07;;;0.70;;
77948;SDS011;67146;51.236;-0.336;2023-07-31T02:00:04;3.30;;;0.60;;
77948;SDS011;67146;51.236;-0.336;2023-07-31T02:02:30;4.55;;;1.58;;
77948;SDS011;67146;51.236;-0.336;2023-07-31T02:04:55;5.50;;;1.03;;
77948;SDS011;67146;51.236;-0.336;2023-07-31T02:07:21;2.87;;;0.43;;
77948;SDS011;67146;51.236;-0.336;2023-07-31T02:09:46;3.80;;;0.63;;
77948;SDS011;67146;51.236;-0.336;2023-07-31T02:12:13;4.57;;;0.50;;
77948;SDS011;67146;51.236;-0.336;2023-07-31T02:14:39;5.78;;;0.90;;
77948;SDS011;67146;51.236;-0.336;2023-07-31T02:17:05;4.88;;;0.90;;
77948;SDS011;67146;51.236;-0.336;2023-07-31T02:19:30;3.70;;;0.50;;
77948;SDS011;67146;51.236;-0.336;2023-07-31T02:21:56;3.50;;;0.85;;
77948;SDS011;67146;51.236;-0.336;2023-07-31T02:24:21;6.23;;;0.70;;
77948;SDS011;67146;51.236;-0.336;2023-07-31T02:26:46;5.40;;;0.60;;
77948;SDS011;67146;51.236;-0.336;2023-07-31T02:29:12;4.03;;;1.40;;
77948;SDS011;67146;51.236;-0.336;2023-07-31T02:31:37;4.40;;;1.00;;
77948;SDS011;67146;51.236;-0.336;2023-07-31T02:34:02;5.67;;;0.93;;
77948;SDS011;67146;51.236;-0.336;2023-07-31T02:36:28;3.10;;;0.40;;
77948;SDS011;67146;51.236;-0.336;2023-07-31T02:38:53;4.78;;;0.73;;
77948;SDS011;67146;51.236;-0.336;2023-07-31T02:41:18;3.50;;;0.50;;
77948;SDS011;67146;51.236;-0.336;2023-07-31T02:43:44;5.10;;;0.67;;
77948;SDS011;67146;51.236;-0.336;2023-07-31T02:46:09;3.95;;;0.82;;
77948;SDS011;67146;51.236;-0.336;2023-07-31T02:48:34;3.83;;;0.50;;
77948;SDS011;67146;51.236;-0.336;2023-07-31T02:51:00;4.37;;;0.50;;
77948;SDS011;67146;51.236;-0.336;2023-07-31T02:53:25;4.07;;;0.40;;
77948;SDS011;67146;51.236;-0.336;2023-07-31T02:55:50;5.10;;;0.73;;
77948;SDS011;67146;51.236;-0.336;2023-07-31T02:58:16;4.70;;;0.50;;
77948;SDS011;67146;51.236;-0.336;2023-07-31T03:00:41;3.27;;;0.47;;
77948;SDS011;67146;51.236;-0.336;2023-07-31T03:03:08;6.15;;;0.60;;
77948;SDS011;67146;51.236;-0.336;2023-07-31T03:05:33;2.83;;;0.40;;
77948;SDS011;67146;51.236;-0.336;2023-07-31T03:07:58;4.47;;;0.50;;
77948;SDS011;67146;51.236;-0.336;2023-07-31T03:10:23;2.20;;;0.30;;
77948;SDS011;67146;51.236;-0.336;2023-07-31T03:12:49;3.40;;;0.30;;
77948;SDS011;67146;51.236;-0.336;2023-07-31T03:15:15;5.53;;;0.60;;
77948;SDS011;67146;51.236;-0.336;2023-07-31T03:17:40;3.83;;;0.47;;
77948;SDS011;67146;51.236;-0.336;2023-07-31T03:20:05;4.20;;;0.87;;
77948;SDS011;67146;51.236;-0.336;2023-07-31T03:22:31;3.40;;;0.28;;
77948;SDS011;67146;51.236;-0.336;2023-07-31T03:24:57;4.22;;;0.60;;
77948;SDS011;67146;51.236;-0.336;2023-07-31T03:27:22;4.57;;;0.60;;
77948;SDS011;67146;51.236;-0.336;2023-07-31T03:29:47;4.20;;;0.40;;
77948;SDS011;67146;51.236;-0.336;2023-07-31T03:32:14;4.10;;;0.45;;
77948;SDS011;67146;51.236;-0.336;2023-07-31T03:34:40;3.60;;;1.38;;
77948;SDS011;67146;51.236;-0.336;2023-07-31T03:37:05;3.27;;;0.70;;
77948;SDS011;67146;51.236;-0.336;2023-07-31T03:39:30;3.50;;;0.60;;
77948;SDS011;67146;51.236;-0.336;2023-07-31T03:41:56;2.95;;;0.93;;
77948;SDS011;67146;51.236;-0.336;2023-07-31T03:44:21;6.80;;;0.77;;
77948;SDS011;67146;51.236;-0.336;2023-07-31T03:46:46;3.83;;;0.50;;
77948;SDS011;67146;51.236;-0.336;2023-07-31T03:49:12;2.47;;;0.43;;
77948;SDS011;67146;51.236;-0.336;2023-07-31T03:51:37;3.17;;;0.60;;
77948;SDS011;67146;51.236;-0.336;2023-07-31T03:54:02;3.10;;;0.50;;
77948;SDS011;67146;51.236;-0.336;2023-07-31T03:56:28;3.00;;;0.50;;
77948;SDS011;67146;51.236;-0.336;2023-07-31T03:58:53;3.90;;;0.63;;
77948;SDS011;67146;51.236;-0.336;2023-07-31T04:01:19;3.45;;;0.63;;
77948;SDS011;67146;51.236;-0.336;2023-07-31T04:03:44;4.07;;;0.70;;
77948;SDS011;67146;51.236;-0.336;2023-07-31T04:06:10;3.42;;;0.80;;
77948;SDS011;67146;51.236;-0.336;2023-07-31T04:08:35;3.23;;;0.50;;
77948;SDS011;67146;51.236;-0.336;2023-07-31T04:11:00;3.33;;;0.63;;
77948;SDS011;67146;51.236;-0.336;2023-07-31T04:13:26;4.20;;;0.57;;
77948;SDS011;67146;51.236;-0.336;2023-07-31T04:15:52;4.28;;;0.88;;
77948;SDS011;67146;51.236;-0.336;2023-07-31T04:18:19;3.25;;;0.93;;
77948;SDS011;67146;51.236;-0.336;2023-07-31T04:20:44;4.03;;;0.70;;
77948;SDS011;67146;51.236;-0.336;2023-07-31T04:23:10;4.13;;;0.93;;
77948;SDS011;67146;51.236;-0.336;2023-07-31T04:25:35;6.10;;;0.73;;
77948;SDS011;67146;51.236;-0.336;2023-07-31T04:28:00;2.50;;;0.40;;
77948;SDS011;67146;51.236;-0.336;2023-07-31T04:30:26;3.45;;;0.77;;
77948;SDS011;67146;51.236;-0.336;2023-07-31T04:32:51;2.90;;;0.60;;
77948;SDS011;67146;51.236;-0.336;2023-07-31T04:35:17;3.92;;;0.95;;
77948;SDS011;67146;51.236;-0.336;2023-07-31T04:37:42;5.63;;;0.73;;
77948;SDS011;67146;51.236;-0.336;2023-07-31T04:40:07;3.55;;;0.60;;
77948;SDS011;67146;51.236;-0.336;2023-07-31T04:42:33;4.88;;;0.90;;
77948;SDS011;67146;51.236;-0.336;2023-07-31T04:44:59;3.63;;;0.75;;
77948;SDS011;67146;51.236;-0.336;2023-07-31T04:47:24;3.90;;;0.80;;
77948;SDS011;67146;51.236;-0.336;2023-07-31T04:49:50;3.97;;;0.70;;
77948;SDS011;67146;51.236;-0.336;2023-07-31T04:52:15;3.30;;;0.80;;
77948;SDS011;67146;51.236;-0.336;2023-07-31T04:54:40;4.80;;;0.60;;
77948;SDS011;67146;51.236;-0.336;2023-07-31T04:57:06;3.27;;;0.50;;
77948;SDS011;67146;51.236;-0.336;2023-07-31T04:59:31;5.85;;;0.95;;
77948;SDS011;67146;51.236;-0.336;2023-07-31T05:01:57;2.53;;;0.43;;
77948;SDS011;67146;51.236;-0.336;2023-07-31T05:04:22;3.20;;;0.80;;
77948;SDS011;67146;51.236;-0.336;2023-07-31T05:06:47;2.47;;;0.50;;
77948;SDS011;67146;51.236;-0.336;2023-07-31T05:09:13;4.60;;;0.37;;
77948;SDS011;67146;51.236;-0.336;2023-07-31T05:11:38;2.63;;;0.40;;
77948;SDS011;67146;51.236;-0.336;2023-07-31T05:14:05;4.20;;;0.90;;
77948;SDS011;67146;51.236;-0.336;2023-07-31T05:16:30;3.22;;;0.40;;
77948;SDS011;67146;51.236;-0.336;2023-07-31T05:18:56;6.47;;;0.60;;
77948;SDS011;67146;51.236;-0.336;2023-07-31T05:21:21;5.15;;;0.80;;
77948;SDS011;67146;51.236;-0.336;2023-07-31T05:23:47;3.80;;;0.50;;
77948;SDS011;67146;51.236;-0.336;2023-07-31T05:26:13;4.07;;;1.00;;
77948;SDS011;67146;51.236;-0.336;2023-07-31T05:28:38;5.55;;;0.70;;
77948;SDS011;67146;51.236;-0.336;2023-07-31T05:31:04;4.03;;;0.80;;
77948;SDS011;67146;51.236;-0.336;2023-07-31T05:33:29;3.13;;;0.65;;
77948;SDS011;67146;51.236;-0.336;2023-07-31T05:35:55;4.00;;;0.50;;
77948;SDS011;67146;51.236;-0.336;2023-07-31T05:38:21;6.10;;;0.98;;
77948;SDS011;67146;51.236;-0.336;2023-07-31T05:40:46;4.70;;;0.73;;
77948;SDS011;67146;51.236;-0.336;2023-07-31T05:43:12;4.13;;;0.82;;
77948;SDS011;67146;51.236;-0.336;2023-07-31T05:45:37;3.33;;;0.55;;
77948;SDS011;67146;51.236;-0.336;2023-07-31T05:48:03;5.93;;;0.52;;
77948;SDS011;67146;51.236;-0.336;2023-07-31T05:50:28;6.82;;;1.75;;
77948;SDS011;67146;51.236;-0.336;2023-07-31T05:52:54;5.70;;;0.82;;
77948;SDS011;67146;51.236;-0.336;2023-07-31T05:55:20;5.00;;;0.63;;
77948;SDS011;67146;51.236;-0.336;2023-07-31T05:57:46;4.53;;;0.45;;
77948;SDS011;67146;51.236;-0.336;2023-07-31T06:00:11;4.05;;;0.85;;
77948;SDS011;67146;51.236;-0.336;2023-07-31T06:02:37;3.55;;;0.57;;
77948;SDS011;67146;51.236;-0.336;2023-07-31T06:05:03;3.42;;;0.93;;
77948;SDS011;67146;51.236;-0.336;2023-07-31T06:07:30;7.82;;;1.27;;
77948;SDS011;67146;51.236;-0.336;2023-07-31T06:09:58;4.00;;;0.82;;
77948;SDS011;67146;51.236;-0.336;2023-07-31T06:12:29;4.63;;;0.60;;
77948;SDS011;67146;51.236;-0.336;2023-07-31T06:14:54;3.95;;;0.47;;
77948;SDS011;67146;51.236;-0.336;2023-07-31T06:17:20;3.63;;;0.53;;
77948;SDS011;67146;51.236;-0.336;2023-07-31T06:19:46;2.70;;;0.43;;
77948;SDS011;67146;51.236;-0.336;2023-07-31T06:22:11;3.90;;;0.50;;
77948;SDS011;67146;51.236;-0.336;2023-07-31T06:24:37;4.27;;;1.03;;
77948;SDS011;67146;51.236;-0.336;2023-07-31T06:27:02;5.50;;;0.53;;
77948;SDS011;67146;51.236;-0.336;2023-07-31T06:29:29;5.50;;;0.60;;
77948;SDS011;67146;51.236;-0.336;2023-07-31T06:31:54;3.65;;;0.40;;
77948;SDS011;67146;51.236;-0.336;2023-07-31T06:34:20;4.25;;;1.25;;
77948;SDS011;67146;51.236;-0.336;2023-07-31T06:36:45;4.37;;;0.70;;
77948;SDS011;67146;51.236;-0.336;2023-07-31T06:39:10;5.53;;;0.70;;
77948;SDS011;67146;51.236;-0.336;2023-07-31T06:41:35;2.57;;;0.40;;
77948;SDS011;67146;51.236;-0.336;2023-07-31T06:44:01;4.80;;;0.50;;
77948;SDS011;67146;51.236;-0.336;2023-07-31T06:46:27;5.07;;;0.30;;
77948;SDS011;67146;51.236;-0.336;2023-07-31T06:48:53;4.63;;;0.50;;
77948;SDS011;67146;51.236;-0.336;2023-07-31T06:51:18;3.13;;;0.80;;
77948;SDS011;67146;51.236;-0.336;2023-07-31T06:53:43;3.73;;;0.30;;
77948;SDS011;67146;51.236;-0.336;2023-07-31T06:56:10;4.53;;;0.75;;
77948;SDS011;67146;51.236;-0.336;2023-07-31T06:58:35;2.78;;;0.52;;
77948;SDS011;67146;51.236;-0.336;2023-07-31T07:01:00;5.07;;;1.00;;
77948;SDS011;67146;51.236;-0.336;2023-07-31T07:03:28;3.70;;;0.60;;
77948;SDS011;67146;51.236;-0.336;2023-07-31T07:05:54;4.45;;;0.40;;
77948;SDS011;67146;51.236;-0.336;2023-07-31T07:08:19;4.53;;;0.70;;
77948;SDS011;67146;51.236;-0.336;2023-07-31T07:10:45;3.90;;;0.60;;
77948;SDS011;67146;51.236;-0.336;2023-07-31T07:13:10;3.97;;;0.60;;
77948;SDS011;67146;51.236;-0.336;2023-07-31T07:15:37;3.42;;;0.52;;
77948;SDS011;67146;51.236;-0.336;2023-07-31T07:18:02;2.80;;;0.37;;
77948;SDS011;67146;51.236;-0.336;2023-07-31T07:20:28;5.68;;;0.73;;
77948;SDS011;67146;51.236;-0.336;2023-07-31T07:22:54;3.92;;;0.57;;
77948;SDS011;67146;51.236;-0.336;2023-07-31T07:25:19;4.67;;;0.60;;
77948;SDS011;67146;51.236;-0.336;2023-07-31T07:27:44;5.37;;;0.97;;
77948;SDS011;67146;51.236;-0.336;2023-07-31T07:30:10;4.20;;;0.40;;
77948;SDS011;67146;51.236;-0.336;2023-07-31T07:32:35;4.00;;;0.85;;
77948;SDS011;67146;51.236;-0.336;2023-07-31T07:35:00;3.30;;;0.60;;
77948;SDS011;67146;51.236;-0.336;2023-07-31T07:37:26;3.47;;;0.70;;
77948;SDS011;67146;51.236;-0.336;2023-07-31T07:39:51;4.33;;;0.60;;
77948;SDS011;67146;51.236;-0.336;2023-07-31T07:42:16;3.93;;;0.87;;
77948;SDS011;67146;51.236;-0.336;2023-07-31T07:44:42;3.50;;;0.60;;
77948;SDS011;67146;51.236;-0.336;2023-07-31T07:47:07;4.97;;;0.93;;
77948;SDS011;67146;51.236;-0.336;2023-07-31T07:49:33;4.45;;;1.25;;
77948;SDS011;67146;51.236;-0.336;2023-07-31T07:51:59;3.67;;;1.13;;
77948;SDS011;67146;51.236;-0.336;2023-07-31T07:54:25;5.60;;;1.05;;
77948;SDS011;67146;51.236;-0.336;2023-07-31T07:56:50;4.80;;;1.73;;
77948;SDS011;67146;51.236;-0.336;2023-07-31T07:59:15;4.78;;;1.02;;
77948;SDS011;67146;51.236;-0.336;2023-07-31T08:01:41;4.17;;;1.03;;
77948;SDS011;67146;51.236;-0.336;2023-07-31T08:04:06;5.10;;;1.50;;
77948;SDS011;67146;51.236;-0.336;2023-07-31T08:06:31;5.70;;;0.93;;
77948;SDS011;67146;51.236;-0.336;2023-07-31T08:08:57;4.77;;;0.90;;
77948;SDS011;67146;51.236;-0.336;2023-07-31T08:11:22;4.43;;;1.30;;
77948;SDS011;67146;51.236;-0.336;2023-07-31T08:13:49;7.45;;;1.15;;
77948;SDS011;67146;51.236;-0.336;2023-07-31T08:16:15;5.57;;;1.30;;
77948;SDS011;67146;51.236;-0.336;2023-07-31T08:18:40;5.47;;;1.42;;
77948;SDS011;67146;51.236;-0.336;2023-07-31T08:21:07;3.92;;;1.10;;
77948;SDS011;67146;51.236;-0.336;2023-07-31T08:23:33;5.18;;;1.48;;
77948;SDS011;67146;51.236;-0.336;2023-07-31T08:25:58;3.83;;;1.35;;
77948;SDS011;67146;51.236;-0.336;2023-07-31T08:28:23;4.00;;;1.37;;
77948;SDS011;67146;51.236;-0.336;2023-07-31T08:30:49;3.28;;;0.95;;
77948;SDS011;67146;51.236;-0.336;2023-07-31T08:33:15;3.90;;;0.70;;
77948;SDS011;67146;51.236;-0.336;2023-07-31T08:35:40;5.00;;;1.27;;
77948;SDS011;67146;51.236;-0.336;2023-07-31T08:38:06;3.13;;;0.83;;
77948;SDS011;67146;51.236;-0.336;2023-07-31T08:40:31;3.87;;;0.93;;
77948;SDS011;67146;51.236;-0.336;2023-07-31T08:42:56;4.57;;;0.70;;
77948;SDS011;67146;51.236;-0.336;2023-07-31T08:45:26;3.22;;;0.90;;
77948;SDS011;67146;51.236;-0.336;2023-07-31T08:47:52;3.58;;;0.80;;
77948;SDS011;67146;51.236;-0.336;2023-07-31T08:50:18;3.37;;;0.60;;
77948;SDS011;67146;51.236;-0.336;2023-07-31T08:52:49;3.35;;;0.60;;
77948;SDS011;67146;51.236;-0.336;2023-07-31T08:55:15;2.92;;;0.63;;
77948;SDS011;67146;51.236;-0.336;2023-07-31T08:57:40;3.73;;;0.37;;
77948;SDS011;67146;51.236;-0.336;2023-07-31T09:00:07;3.75;;;0.90;;
77948;SDS011;67146;51.236;-0.336;2023-07-31T09:05:11;2.38;;;0.40;;
77948;SDS011;67146;51.236;-0.336;2023-07-31T09:07:37;3.28;;;0.57;;
77948;SDS011;67146;51.236;-0.336;2023-07-31T09:10:03;2.40;;;0.68;;
77948;SDS011;67146;51.236;-0.336;2023-07-31T09:12:29;2.88;;;0.57;;
77948;SDS011;67146;51.236;-0.336;2023-07-31T09:14:55;2.35;;;0.68;;
77948;SDS011;67146;51.236;-0.336;2023-07-31T09:17:28;4.65;;;0.50;;
77948;SDS011;67146;51.236;-0.336;2023-07-31T09:19:55;2.72;;;0.40;;
77948;SDS011;67146;51.236;-0.336;2023-07-31T09:22:33;4.23;;;1.03;;
77948;SDS011;67146;51.236;-0.336;2023-07-31T09:25:14;2.70;;;0.32;;
77948;SDS011;67146;51.236;-0.336;2023-07-31T09:30:12;4.53;;;0.60;;
77948;SDS011;67146;51.236;-0.336;2023-07-31T09:32:38;5.22;;;0.40;;
77948;SDS011;67146;51.236;-0.336;2023-07-31T09:37:55;3.78;;;0.50;;
77948;SDS011;67146;51.236;-0.336;2023-07-31T09:40:30;3.95;;;0.40;;
77948;SDS011;67146;51.236;-0.336;2023-07-31T09:45:28;3.25;;;0.63;;
77948;SDS011;67146;51.236;-0.336;2023-07-31T09:47:54;3.92;;;0.60;;
77948;SDS011;67146;51.236;-0.336;2023-07-31T09:50:21;3.33;;;0.68;;
77948;SDS011;67146;51.236;-0.336;2023-07-31T09:52:47;3.95;;;0.73;;
77948;SDS011;67146;51.236;-0.336;2023-07-31T09:55:12;2.40;;;0.52;;
77948;SDS011;67146;51.236;-0.336;2023-07-31T09:57:41;5.40;;;0.68;;
77948;SDS011;67146;51.236;-0.336;2023-07-31T10:00:10;3.75;;;0.45;;
77948;SDS011;67146;51.236;-0.336;2023-07-31T10:02:39;4.25;;;0.80;;
77948;SDS011;67146;51.236;-0.336;2023-07-31T10:05:05;6.55;;;0.73;;
77948;SDS011;67146;51.236;-0.336;2023-07-31T10:07:33;2.90;;;0.65;;
77948;SDS011;67146;51.236;-0.336;2023-07-31T10:10:01;3.42;;;0.50;;
77948;SDS011;67146;51.236;-0.336;2023-07-31T10:12:27;2.70;;;0.50;;
77948;SDS011;67146;51.236;-0.336;2023-07-31T10:14:54;2.85;;;0.63;;
77948;SDS011;67146;51.236;-0.336;2023-07-31T10:17:19;3.33;;;0.68;;
77948;SDS011;67146;51.236;-0.336;2023-07-31T10:19:46;2.90;;;0.75;;
77948;SDS011;67146;51.236;-0.336;2023-07-31T10:22:13;3.75;;;0.50;;
77948;SDS011;67146;51.236;-0.336;2023-07-31T10:24:39;3.10;;;0.68;;
77948;SDS011;67146;51.236;-0.336;2023-07-31T10:27:05;3.63;;;0.60;;
77948;SDS011;67146;51.236;-0.336;2023-07-31T10:29:30;5.15;;;0.57;;
77948;SDS011;67146;51.236;-0.336;2023-07-31T10:31:57;3.00;;;0.63;;
77948;SDS011;67146;51.236;-0.336;2023-07-31T10:34:23;2.88;;;0.70;;
77948;SDS011;67146;51.236;-0.336;2023-07-31T10:36:49;3.75;;;0.70;;
77948;SDS011;67146;51.236;-0.336;2023-07-31T10:39:36;3.30;;;0.70;;
77948;SDS011;67146;51.236;-0.336;2023-07-31T10:42:10;3.70;;;0.70;;
77948;SDS011;67146;51.236;-0.336;2023-07-31T10:44:36;5.03;;;0.70;;
77948;SDS011;67146;51.236;-0.336;2023-07-31T10:47:01;3.00;;;0.60;;
77948;SDS011;67146;51.236;-0.336;2023-07-31T10:49:27;2.45;;;0.50;;
77948;SDS011;67146;51.236;-0.336;2023-07-31T10:51:56;2.90;;;0.55;;
77948;SDS011;67146;51.236;-0.336;2023-07-31T10:54:22;4.77;;;0.63;;
77948;SDS011;67146;51.236;-0.336;2023-07-31T10:56:49;3.28;;;0.75;;
77948;SDS011;67146;51.236;-0.336;2023-07-31T11:01:52;4.75;;;0.65;;
77948;SDS011;67146;51.236;-0.336;2023-07-31T11:04:22;2.65;;;0.60;;
77948;SDS011;67146;51.236;-0.336;2023-07-31T11:06:56;2.35;;;0.38;;
77948;SDS011;67146;51.236;-0.336;2023-07-31T11:09:24;3.08;;;0.60;;
77948;SDS011;67146;51.236;-0.336;2023-07-31T11:11:50;3.13;;;0.60;;
77948;SDS011;67146;51.236;-0.336;2023-07-31T11:14:17;4.25;;;0.75;;
77948;SDS011;67146;51.236;-0.336;2023-07-31T11:16:42;3.50;;;0.60;;
77948;SDS011;67146;51.236;-0.336;2023-07-31T11:19:08;3.73;;;1.07;;
77948;SDS011;67146;51.236;-0.336;2023-07-31T11:21:33;3.70;;;0.80;;
77948;SDS011;67146;51.236;-0.336;2023-07-31T11:23:59;6.10;;;0.47;;
77948;SDS011;67146;51.236;-0.336;2023-07-31T11:26:24;4.07;;;0.80;;
77948;SDS011;67146;51.236;-0.336;2023-07-31T11:28:50;5.32;;;1.10;;
77948;SDS011;67146;51.236;-0.336;2023-07-31T11:31:16;4.90;;;1.02;;
77948;SDS011;67146;51.236;-0.336;2023-07-31T11:33:45;4.68;;;1.17;;
77948;SDS011;67146;51.236;-0.336;2023-07-31T11:36:17;4.32;;;1.02;;
77948;SDS011;67146;51.236;-0.336;2023-07-31T11:38:44;4.70;;;0.90;;
77948;SDS011;67146;51.236;-0.336;2023-07-31T11:41:09;3.22;;;0.68;;
77948;SDS011;67146;51.236;-0.336;2023-07-31T11:43:35;4.35;;;0.82;;
77948;SDS011;67146;51.236;-0.336;2023-07-31T11:46:01;4.03;;;0.60;;
77948;SDS011;67146;51.236;-0.336;2023-07-31T11:48:35;4.35;;;1.38;;
77948;SDS011;67146;51.236;-0.336;2023-07-31T11:51:02;3.20;;;0.60;;
77948;SDS011;67146;51.236;-0.336;2023-07-31T11:53:33;3.38;;;0.73;;
77948;SDS011;67146;51.236;-0.336;2023-07-31T11:56:02;3.80;;;0.90;;
77948;SDS011;67146;51.236;-0.336;2023-07-31T11:58:30;3.15;;;0.60;;
77948;SDS011;67146;51.236;-0.336;2023-07-31T12:00:56;4.80;;;0.80;;
77948;SDS011;67146;51.236;-0.336;2023-07-31T12:03:21;4.30;;;0.80;;
77948;SDS011;67146;51.236;-0.336;2023-07-31T12:05:47;4.90;;;1.15;;
77948;SDS011;67146;51.236;-0.336;2023-07-31T12:08:13;4.20;;;1.65;;
77948;SDS011;67146;51.236;-0.336;2023-07-31T12:10:39;4.10;;;0.63;;
77948;SDS011;67146;51.236;-0.336;2023-07-31T12:13:08;3.35;;;0.57;;
77948;SDS011;67146;51.236;-0.336;2023-07-31T12:15:41;3.53;;;0.70;;
77948;SDS011;67146;51.236;-0.336;2023-07-31T12:18:11;4.20;;;0.73;;
77948;SDS011;67146;51.236;-0.336;2023-07-31T12:20:42;3.80;;;0.90;;
77948;SDS011;67146;51.236;-0.336;2023-07-31T12:23:12;4.70;;;0.90;;
77948;SDS011;67146;51.236;-0.336;2023-07-31T12:25:40;3.55;;;0.70;;
77948;SDS011;67146;51.236;-0.336;2023-07-31T12:28:06;3.75;;;0.82;;
77948;SDS011;67146;51.236;-0.336;2023-07-31T12:30:36;4.22;;;1.23;;
77948;SDS011;67146;51.236;-0.336;2023-07-31T12:33:06;4.57;;;1.08;;
77948;SDS011;67146;51.236;-0.336;2023-07-31T12:35:36;3.85;;;0.80;;
77948;SDS011;67146;51.236;-0.336;2023-07-31T12:38:02;4.40;;;1.08;;
77948;SDS011;67146;51.236;-0.336;2023-07-31T12:40:27;5.03;;;0.90;;
77948;SDS011;67146;51.236;-0.336;2023-07-31T12:42:53;4.60;;;1.23;;
77948;SDS011;67146;51.236;-0.336;2023-07-31T12:45:18;5.18;;;0.77;;
77948;SDS011;67146;51.236;-0.336;2023-07-31T12:47:44;5.40;;;1.37;;
77948;SDS011;67146;51.236;-0.336;2023-07-31T12:50:09;4.37;;;0.73;;
77948;SDS011;67146;51.236;-0.336;2023-07-31T12:52:34;5.22;;;0.82;;
77948;SDS011;67146;51.236;-0.336;2023-07-31T12:55:00;4.80;;;0.90;;
77948;SDS011;67146;51.236;-0.336;2023-07-31T12:57:25;4.80;;;1.20;;
77948;SDS011;67146;51.236;-0.336;2023-07-31T12:59:50;4.43;;;1.13;;
77948;SDS011;67146;51.236;-0.336;2023-07-31T13:02:16;4.50;;;1.23;;
77948;SDS011;67146;51.236;-0.336;2023-07-31T13:04:41;4.97;;;1.10;;
77948;SDS011;67146;51.236;-0.336;2023-07-31T13:07:06;7.77;;;1.50;;
77948;SDS011;67146;51.236;-0.336;2023-07-31T13:09:33;6.03;;;1.48;;
77948;SDS011;67146;51.236;-0.336;2023-07-31T13:12:01;7.45;;;1.10;;
77948;SDS011;67146;51.236;-0.336;2023-07-31T13:14:26;4.95;;;1.13;;
77948;SDS011;67146;51.236;-0.336;2023-07-31T13:16:52;5.97;;;1.43;;
77948;SDS011;67146;51.236;-0.336;2023-07-31T13:19:17;6.17;;;0.97;;
77948;SDS011;67146;51.236;-0.336;2023-07-31T13:21:42;10.27;;;2.03;;
77948;SDS011;67146;51.236;-0.336;2023-07-31T13:24:08;6.20;;;1.30;;
77948;SDS011;67146;51.236;-0.336;2023-07-31T13:26:33;7.35;;;1.60;;
77948;SDS011;67146;51.236;-0.336;2023-07-31T13:29:00;6.32;;;1.75;;
77948;SDS011;67146;51.236;-0.336;2023-07-31T13:31:26;7.73;;;1.40;;
77948;SDS011;67146;51.236;-0.336;2023-07-31T13:33:51;7.75;;;1.58;;
77948;SDS011;67146;51.236;-0.336;2023-07-31T13:36:16;7.97;;;2.03;;
77948;SDS011;67146;51.236;-0.336;2023-07-31T13:38:42;6.53;;;1.40;;
77948;SDS011;67146;51.236;-0.336;2023-07-31T13:41:07;6.87;;;1.67;;
77948;SDS011;67146;51.236;-0.336;2023-07-31T13:43:32;7.25;;;1.55;;
77948;SDS011;67146;51.236;-0.336;2023-07-31T13:45:58;8.10;;;1.55;;
77948;SDS011;67146;51.236;-0.336;2023-07-31T13:48:29;7.00;;;1.58;;
77948;SDS011;67146;51.236;-0.336;2023-07-31T13:50:54;7.23;;;1.30;;
77948;SDS011;67146;51.236;-0.336;2023-07-31T13:53:19;7.17;;;1.43;;
77948;SDS011;67146;51.236;-0.336;2023-07-31T13:55:45;10.47;;;1.93;;
77948;SDS011;67146;51.236;-0.336;2023-07-31T13:58:10;6.95;;;1.75;;
77948;SDS011;67146;51.236;-0.336;2023-07-31T14:00:36;8.13;;;2.00;;
77948;SDS011;67146;51.236;-0.336;2023-07-31T14:03:01;10.60;;;1.77;;
77948;SDS011;67146;51.236;-0.336;2023-07-31T14:05:26;9.63;;;2.78;;
77948;SDS011;67146;51.236;-0.336;2023-07-31T14:07:52;8.40;;;1.88;;
77948;SDS011;67146;51.236;-0.336;2023-07-31T14:10:17;7.07;;;2.27;;
77948;SDS011;67146;51.236;-0.336;2023-07-31T14:12:42;8.95;;;3.60;;
77948;SDS011;67146;51.236;-0.336;2023-07-31T14:15:08;8.83;;;2.33;;
77948;SDS011;67146;51.236;-0.336;2023-07-31T14:17:34;9.05;;;2.22;;
77948;SDS011;67146;51.236;-0.336;2023-07-31T14:19:59;9.90;;;2.47;;
77948;SDS011;67146;51.236;-0.336;2023-07-31T14:22:28;11.83;;;2.27;;
77948;SDS011;67146;51.236;-0.336;2023-07-31T14:24:54;8.32;;;2.20;;
77948;SDS011;67146;51.236;-0.336;2023-07-31T14:27:20;6.97;;;2.13;;
77948;SDS011;67146;51.236;-0.336;2023-07-31T14:29:45;10.60;;;2.60;;
77948;SDS011;67146;51.236;-0.336;2023-07-31T14:32:10;8.43;;;2.03;;
77948;SDS011;67146;51.236;-0.336;2023-07-31T14:34:36;10.03;;;3.27;;
77948;SDS011;67146;51.236;-0.336;2023-07-31T14:37:01;9.20;;;2.07;;
77948;SDS011;67146;51.236;-0.336;2023-07-31T14:39:26;8.03;;;2.70;;
77948;SDS011;67146;51.236;-0.336;2023-07-31T14:41:52;9.87;;;2.87;;
77948;SDS011;67146;51.236;-0.336;2023-07-31T14:44:17;11.70;;;2.97;;